Airfield :







YOU CAN JOIN US ON...

 
LOGIN :

Register | Disclaimer

   EN    FR    IT 

 









Legend :    VFR   Marginal VFR   IFR   Intensive IFR   Very Intensive IFR
Visi :
Ceiling :
>= 8 km
>= 3000ft
5 to 8 km
1000 to 3000 ft
1500m to 5 km
500 to 1000 ft
800 to 1500m
200 to 500 ft
< 800m
< 200 ft
Symbols :   Thunderstorms  Fog  Heavy snow  Heavy precipitations  Wind > 20 kt







- Airport Elevation : 787 ft
- IATA code : RUT


KRUT - Rutland - Southern Vermont Regional

CURRENT METAR :
  • 171156Z AUTO 20004KT 10SM OVC014 22/21 A2995 RMK AO2 RAE52 SLP130 P0005 60013 70013 T02220211 10239 20211 51002 $

EXPIRED METARs :
  • 171130Z AUTO 19003KT 10SM -RA BKN014 BKN021 OVC055 21/21 A2994 RMK AO2 P0005 $
  • 171056Z AUTO 18004KT 7SM RA SCT013 BKN018 OVC024 22/21 A2995 RMK AO2 SLP129 P0006 T02170206 $
  • 170956Z AUTO 15005KT 6SM -RA BR BKN015 OVC020 21/21 A2994 RMK AO2 SLP129 P0002 T02110206 $

TAF KRUT
Valid from the 17 at 12:00 until the 18 at 12:00 UTC


171120Z 1712/1812 22005KT P6SM -SHRA OVC025
FM171500 VRB04KT 4SM SHRA BR OVC015
FM180300 VRB04KT P6SM VCSH BKN020
FM180600 VRB04KT P6SM BKN021
FM181100 09006KT P6SM BKN023
KZBW FIR / North America



MET'MAP, your aeronautical weather chart ! - Copyright ORBIFLY December 2007 - Disclaimer

ORBIFLY MET'MAP TEAM :

Programming & Development : Alexandra Zaïnal
Concept & Development : Baudouin d'Aumeries
Co-Development & Prog : Marc-Olivier Méhu
Technical & hardware support : Manuel Goepfert

Contact : metmap@orbifly.com




SOURCES & CREDITS :

   NOAA